Latest METARs, TAFs and NOTAMs for MMTO


---------------------------------------------------------------------------
	(OBSERVATIONS)
MMTO 221648Z 09004KT 7SM  BKN015 BKN200 18/10 A3043 RMK 8/102=
MMTO 221549Z 07004KT 7SM  SCT015 BKN200 18/10 A3044 RMK 8/102=
MMTO 221446Z 32004KT 7SM  SCT015 BKN200 16/11 A3043  RMK SLP103
    52004 953 8/102=
---------------------------------------------------------------------------
	(TERMINAL AREA FORECAST)
MMTO 221622Z 2218/2324 07010KT P6SM BKN015 BKN200 TX22/2221Z
    TN12/2312Z
    BECMG 2221/2222 BKN015CB
    TEMPO 2222/2302 4SM TSRA
    FM230400 06006KT 5SM HZ BKN015 BKN070 BKN200
    FM231000 00000KT 3SM BR HZ OVC010
    TEMPO 2310/2314 1SM BR HZ
    FM231600 06006KT 4SM HZ BKN015
    BECMG 2317/2318 SCT015
    FM232000 05010KT P6SM SCT015CB BKN070 BKN200
    TEMPO 2321/2324 4SM TSRA BKN015CB=
---------------------------------------------------------------------------
	(NOTAMS)


MMTO A0572/17 CHANGED NAME OF THE FOLLOWING REPORTING POINTS:
    LIMBO TO TAKUG NOGAL TO LENEG PUBLISHED IN CHART AD-MMTO-LL-1,
    AD-MMTO-LL-4, AD-MMTO-LL-7-RNAV/LL-8-RNAV PUBLISHED IN ANEX
    TO SUP 06/12 DATE 21-SEP-2012 MEXICO AIP. 27 JAN 03:46 2017
    UNTIL PERM. CREATED: 27 JAN 04:02 2017

MMTO A4884/17 AP OPR IN CAT I. 10 AUG 22:19 2017 UNTIL 30 SEP
    23:59 2017. CREATED: 10 AUG 22:22 2017

MMTO A4890/17 RWY 15/33 CLSD. 1600/1700 ONLY MON, 21 AUG 16:00
    2017 UNTIL 23 OCT 17:00 2017. CREATED: 11 AUG 01:41 2017

---------------------------------------------------------------------------